Time;durP1;ratioP1;P1;durP2;ratioP2;P2;SDS_P1;SDS_P2;PMS_P1;PMS_P2;Temp;Humidity;BMP_temperature;BMP_pressure;BME280_temperature;BME280_humidity;BME280_pressure;Samples;Min_cycle;Max_cycle;Signal;HPM_P1;HPM_P2
2022/08/31 00:05:37;;;;;;;2.13;1.08;;;;;;;23.49;43.70;102005.66;4969503;28;20034;-63
2022/08/31 00:08:02;;;;;;;2.17;1.00;;;;;;;23.45;43.81;102000.72;4964692;28;20100;-63
2022/08/31 00:10:28;;;;;;;2.75;1.08;;;;;;;23.49;44.15;102002.16;4964897;28;20434;-64
2022/08/31 00:12:54;;;;;;;2.50;1.30;;;;;;;23.49;43.55;102007.50;4964408;28;20514;-64
2022/08/31 00:15:21;;;;;;;2.33;1.20;;;;;;;23.48;43.95;102000.47;4979154;28;20026;-62
2022/08/31 00:17:47;;;;;;;2.53;1.30;;;;;;;23.49;43.57;101996.84;4984023;28;20027;-64
2022/08/31 00:20:14;;;;;;;2.40;1.15;;;;;;;23.49;44.00;101999.50;4984010;28;20034;-63
2022/08/31 00:22:40;;;;;;;2.60;1.15;;;;;;;23.48;43.99;102001.34;4977348;28;20061;-63
2022/08/31 00:25:06;;;;;;;2.25;1.10;;;;;;;23.48;44.18;102000.47;4968953;28;20792;-65
2022/08/31 00:27:32;;;;;;;2.50;1.30;;;;;;;23.46;43.69;101997.94;4983356;28;20046;-64
2022/08/31 00:29:57;;;;;;;2.50;1.10;;;;;;;23.47;44.23;102002.28;4970817;28;20205;-65
2022/08/31 00:32:22;;;;;;;2.77;1.37;;;;;;;23.46;44.21;102002.44;4964735;28;20039;-65
2022/08/31 00:34:48;;;;;;;2.78;1.30;;;;;;;23.45;44.23;102004.25;4966327;28;20304;-62
2022/08/31 00:37:13;;;;;;;3.03;1.30;;;;;;;23.43;43.78;102005.34;4983644;28;20038;-63
2022/08/31 00:39:39;;;;;;;3.22;1.10;;;;;;;23.44;43.95;102009.72;4983421;28;20314;-63
2022/08/31 00:42:06;;;;;;;3.08;1.20;;;;;;;23.44;44.05;102009.72;4972382;28;20042;-64
2022/08/31 00:44:31;;;;;;;3.28;1.13;;;;;;;23.44;44.08;102004.38;4964702;28;20030;-64
2022/08/31 00:46:57;;;;;;;2.33;1.08;;;;;;;23.42;44.17;102001.03;4974251;28;20031;-63
2022/08/31 00:49:34;;;;;;;3.70;1.33;;;;;;;23.42;43.97;101998.38;4964467;28;20439;-64
2022/08/31 00:52:04;;;;;;;3.30;1.40;;;;;;;23.40;44.36;101998.50;4976323;28;20038;-63
2022/08/31 00:55:06;;;;;;;3.85;1.25;;;;;;;23.43;43.89;102006.22;4983230;28;20137;-65
2022/08/31 00:57:35;;;;;;;4.78;1.33;;;;;;;23.40;44.22;102000.28;4965747;28;20100;-64
2022/08/31 01:00:06;;;;;;;2.67;1.30;;;;;;;23.39;44.25;101993.31;4983841;28;20133;-63
2022/08/31 01:02:31;;;;;;;3.30;1.10;;;;;;;23.39;44.27;101996.81;4983016;28;20041;-65
2022/08/31 01:04:56;;;;;;;2.83;1.27;;;;;;;23.38;44.56;101997.75;4982961;28;20057;-65
2022/08/31 01:07:22;;;;;;;3.33;1.30;;;;;;;23.39;44.04;101996.81;4970268;28;20121;-65
2022/08/31 01:09:47;;;;;;;3.10;1.10;;;;;;;23.40;44.38;102005.63;4966153;28;20296;-63
2022/08/31 01:12:13;;;;;;;3.40;1.20;;;;;;;23.39;44.26;102004.78;4967006;28;20035;-63
2022/08/31 01:14:38;;;;;;;2.67;1.00;;;;;;;23.40;44.23;101995.84;4964071;28;20038;-64
2022/08/31 01:17:05;;;;;;;2.60;1.20;;;;;;;23.36;44.22;101992.56;4978705;28;20034;-64
2022/08/31 01:19:36;;;;;;;2.63;1.42;;;;;;;23.38;44.47;101995.09;4971434;28;20042;-64
2022/08/31 01:22:40;;;;;;;2.42;1.10;;;;;;;23.38;44.13;101999.59;4970049;28;20038;-64
2022/08/31 01:25:06;;;;;;;2.40;1.10;;;;;;;23.37;44.18;101993.44;4949358;28;20113;-64
2022/08/31 01:27:34;;;;;;;2.33;1.10;;;;;;;23.38;44.53;101999.59;4982686;28;20439;-63
2022/08/31 01:30:02;;;;;;;2.72;1.00;;;;;;;23.37;44.69;101996.09;4969932;28;20587;-63
2022/08/31 01:32:28;;;;;;;1.73;0.90;;;;;;;23.35;44.26;101982.94;4963274;28;20081;-64
2022/08/31 01:34:53;;;;;;;2.55;1.20;;;;;;;23.38;44.09;101994.28;4963432;28;20051;-65
2022/08/31 01:37:18;;;;;;;2.87;1.10;;;;;;;23.28;44.32;101976.44;4975420;28;20041;-63
2022/08/31 01:39:44;;;;;;;1.93;1.00;;;;;;;23.36;44.65;101997.06;4982832;28;20275;-65
2022/08/31 01:42:09;;;;;;;2.42;1.20;;;;;;;23.34;44.41;101991.03;4974813;28;21042;-65
2022/08/31 01:44:34;;;;;;;2.83;1.20;;;;;;;23.36;44.26;101992.56;4968510;28;20446;-64
2022/08/31 01:46:59;;;;;;;4.07;1.10;;;;;;;23.34;44.27;101993.69;4963482;28;20275;-64
2022/08/31 01:49:25;;;;;;;2.75;1.15;;;;;;;23.33;44.42;101984.84;4969618;28;20491;-65
2022/08/31 01:51:52;;;;;;;2.90;1.45;;;;;;;23.34;44.66;102001.69;4973927;28;20037;-64
2022/08/31 01:54:19;;;;;;;2.10;1.17;;;;;;;23.35;44.46;102000.69;4982118;28;20483;-65
2022/08/31 01:56:46;;;;;;;2.10;1.05;;;;;;;23.33;44.72;102002.63;4978600;28;20088;-63
2022/08/31 01:59:13;;;;;;;2.25;1.00;;;;;;;23.34;44.62;102004.34;4979998;28;20026;-62
2022/08/31 02:01:43;;;;;;;2.08;0.90;;;;;;;23.34;44.53;102005.16;4962112;28;20039;-64
2022/08/31 02:04:10;;;;;;;2.72;1.20;;;;;;;23.34;44.39;102007.81;4962897;28;20026;-64
2022/08/31 02:06:37;;;;;;;2.05;0.98;;;;;;;23.31;44.70;102008.09;4972070;28;20042;-65
2022/08/31 02:09:04;;;;;;;3.88;1.00;;;;;;;23.33;44.30;102011.44;4979259;28;20027;-64
2022/08/31 02:11:30;;;;;;;2.78;1.10;;;;;;;23.31;44.57;102002.78;4982037;28;20101;-64
2022/08/31 02:13:55;;;;;;;2.20;1.10;;;;;;;23.27;44.40;101997.84;4981753;28;20411;-64
2022/08/31 02:16:21;;;;;;;2.42;1.10;;;;;;;23.29;44.83;102002.06;4980080;28;20509;-64
2022/08/31 02:18:46;;;;;;;8.23;1.23;;;;;;;23.30;44.45;101998.41;4961330;28;20622;-62
2022/08/31 02:21:12;;;;;;;3.08;1.10;;;;;;;23.32;44.30;102008.91;4974922;28;20048;-62
2022/08/31 02:23:38;;;;;;;2.25;1.00;;;;;;;23.30;44.70;102014.38;4964724;28;20535;-64
2022/08/31 02:26:03;;;;;;;2.38;1.15;;;;;;;23.30;44.36;102010.88;4966404;28;20034;-63
2022/08/31 02:28:28;;;;;;;2.13;1.00;;;;;;;23.25;44.26;102011.28;4981537;28;20050;-64
2022/08/31 02:30:54;;;;;;;2.33;1.10;;;;;;;23.27;44.92;102011.13;4965764;28;20061;-63
2022/08/31 02:33:19;;;;;;;1.92;1.00;;;;;;;23.28;44.81;102015.50;4966942;28;20404;-63
2022/08/31 02:35:44;;;;;;;3.08;1.10;;;;;;;23.26;44.42;102015.63;4977750;28;20066;-64
2022/08/31 02:38:10;;;;;;;1.70;0.90;;;;;;;23.27;44.44;102016.47;4982760;28;20821;-63
2022/08/31 02:40:37;;;;;;;3.80;1.33;;;;;;;23.26;44.46;102004.16;4972547;28;20268;-63
2022/08/31 02:43:08;;;;;;;2.67;1.20;;;;;;;23.26;44.71;102018.28;4985761;28;20471;-63
2022/08/31 02:45:34;;;;;;;2.55;1.10;;;;;;;23.24;44.84;102016.72;4983274;28;20118;-64
2022/08/31 02:48:00;;;;;;;3.47;1.23;;;;;;;23.25;44.67;102015.75;4969745;28;20038;-63
2022/08/31 02:50:25;;;;;;;2.55;1.20;;;;;;;23.24;44.80;102006.94;4982739;28;20078;-64
2022/08/31 02:52:54;;;;;;;2.53;1.08;;;;;;;23.24;44.68;102006.09;4966038;28;20034;-64
2022/08/31 02:55:20;;;;;;;2.15;1.00;;;;;;;23.23;44.61;102009.72;4966223;28;21426;-64
2022/08/31 02:57:46;;;;;;;2.97;1.27;;;;;;;23.21;44.66;102001.03;4966364;28;20535;-64
2022/08/31 03:00:12;;;;;;;2.42;1.00;;;;;;;23.18;44.37;102000.31;4966199;28;20031;-64
2022/08/31 03:02:38;;;;;;;2.88;1.13;;;;;;;23.21;44.46;102009.00;4966223;28;20023;-64
2022/08/31 03:05:06;;;;;;;2.28;1.10;;;;;;;23.19;44.35;102006.47;4965984;28;20033;-64
2022/08/31 03:07:33;;;;;;;2.30;1.10;;;;;;;23.21;44.46;102014.31;4985135;28;20026;-63
2022/08/31 03:09:59;;;;;;;2.83;1.40;;;;;;;23.20;44.73;102010.00;4985449;28;20109;-64
2022/08/31 03:12:24;;;;;;;2.42;1.08;;;;;;;23.18;44.67;102010.13;4965565;28;20035;-63
2022/08/31 03:14:50;;;;;;;3.28;1.30;;;;;;;23.17;44.69;102003.09;4965927;28;20034;-64
2022/08/31 03:17:15;;;;;;;1.90;1.00;;;;;;;23.16;44.97;102004.94;4966798;28;20041;-63
2022/08/31 03:19:40;;;;;;;3.10;1.20;;;;;;;23.16;44.48;102004.94;4985087;28;20220;-64
2022/08/31 03:22:06;;;;;;;2.38;1.10;;;;;;;23.17;44.62;102006.59;4985209;28;20519;-64
2022/08/31 03:24:31;;;;;;;2.90;1.23;;;;;;;23.17;44.67;102011.09;4969183;28;20035;-64
2022/08/31 03:26:56;;;;;;;4.03;1.27;;;;;;;23.17;44.36;102014.56;4969548;28;20811;-64
2022/08/31 03:29:21;;;;;;;2.90;1.02;;;;;;;23.14;44.64;102012.16;4969854;28;20061;-65
2022/08/31 03:31:47;;;;;;;2.80;1.10;;;;;;;23.12;44.68;102011.47;4967278;28;20062;-65
2022/08/31 03:34:12;;;;;;;1.98;1.05;;;;;;;23.13;44.76;102012.31;4965532;28;20179;-65
2022/08/31 03:36:37;;;;;;;2.10;1.17;;;;;;;23.12;44.47;102013.28;4974626;28;20042;-64
2022/08/31 03:39:03;;;;;;;2.97;1.30;;;;;;;23.11;44.56;102009.78;4984955;28;20256;-64
2022/08/31 03:41:28;;;;;;;2.92;1.10;;;;;;;23.10;44.78;102008.09;4973485;28;20065;-64
2022/08/31 03:43:54;;;;;;;3.00;1.20;;;;;;;23.11;44.91;102015.09;4971465;28;20086;-64
2022/08/31 03:46:19;;;;;;;2.40;1.08;;;;;;;23.10;44.66;102016.09;4978065;28;20264;-64
2022/08/31 03:48:48;;;;;;;2.38;1.20;;;;;;;23.07;44.71;102010.16;4974481;28;20071;-64
2022/08/31 03:51:15;;;;;;;2.17;1.20;;;;;;;23.09;44.73;102009.06;4973615;28;20382;-65
2022/08/31 03:53:41;;;;;;;2.30;1.10;;;;;;;23.06;44.41;102016.44;4968335;28;20038;-64
2022/08/31 03:56:08;;;;;;;3.28;1.15;;;;;;;23.08;44.60;102011.84;4972193;28;20030;-63
2022/08/31 03:58:34;;;;;;;3.30;1.10;;;;;;;23.06;44.39;102011.94;4984121;28;20077;-64
2022/08/31 04:01:00;;;;;;;1.85;1.05;;;;;;;23.09;44.62;102010.91;4978089;28;20172;-63
2022/08/31 04:03:25;;;;;;;2.47;1.15;;;;;;;23.06;44.57;102005.81;4984202;28;20488;-62
2022/08/31 04:05:50;;;;;;;1.88;1.00;;;;;;;23.07;44.30;102016.31;4984501;28;20030;-64
2022/08/31 04:08:18;;;;;;;2.05;1.17;;;;;;;23.05;44.45;102014.75;4969579;28;20039;-66
2022/08/31 04:10:46;;;;;;;2.58;1.35;;;;;;;23.02;44.71;102010.53;4964965;28;20053;-65
2022/08/31 04:13:12;;;;;;;2.70;1.17;;;;;;;23.03;44.40;102014.88;4967707;28;20061;-63
2022/08/31 04:15:38;;;;;;;1.77;0.95;;;;;;;23.05;44.31;102015.59;4966739;28;20069;-65
2022/08/31 04:18:04;;;;;;;2.75;1.35;;;;;;;23.02;44.13;102015.84;4964943;28;20054;-64
2022/08/31 04:20:35;;;;;;;4.97;1.10;;;;;;;23.01;44.37;102014.16;4964781;28;20154;-65
2022/08/31 04:23:01;;;;;;;2.55;1.10;;;;;;;23.01;44.41;102019.47;4964803;28;20045;-65
2022/08/31 04:25:26;;;;;;;2.42;1.00;;;;;;;23.03;44.23;102017.53;4964735;28;20395;-64
2022/08/31 04:27:53;;;;;;;2.42;1.20;;;;;;;23.03;44.49;102025.50;4978780;28;20134;-64
2022/08/31 04:30:20;;;;;;;1.83;1.00;;;;;;;23.03;44.33;102020.19;4974004;28;20031;-65
2022/08/31 04:32:46;;;;;;;3.45;1.30;;;;;;;22.98;44.43;102017.91;4967700;28;20266;-64
2022/08/31 04:35:11;;;;;;;2.20;1.10;;;;;;;23.00;44.02;102026.63;4971944;28;21218;-63
2022/08/31 04:37:37;;;;;;;2.33;1.13;;;;;;;23.01;44.30;102030.94;4964348;28;20046;-65
2022/08/31 04:40:03;;;;;;;4.65;1.38;;;;;;;22.99;44.05;102022.25;4969781;28;20287;-65
2022/08/31 04:42:29;;;;;;;3.58;1.15;;;;;;;22.98;43.92;102020.56;4980237;28;20030;-63
2022/08/31 04:44:54;;;;;;;3.60;1.17;;;;;;;23.01;44.11;102024.78;4968027;28;20027;-65
2022/08/31 04:47:19;;;;;;;2.80;1.13;;;;;;;23.00;43.92;102025.75;4965434;28;20049;-64
2022/08/31 04:49:46;;;;;;;2.70;1.20;;;;;;;23.00;43.90;102028.41;4968008;28;20433;-63
2022/08/31 04:52:11;;;;;;;2.70;1.13;;;;;;;22.99;43.60;102024.09;4963971;28;20744;-64
2022/08/31 04:54:36;;;;;;;1.93;1.10;;;;;;;22.98;43.56;102030.38;4967902;28;20032;-63
2022/08/31 04:57:01;;;;;;;2.33;1.20;;;;;;;22.97;43.62;102036.66;4981670;28;20605;-64
2022/08/31 04:59:27;;;;;;;2.67;1.27;;;;;;;22.98;43.88;102030.38;4964186;28;20118;-63
2022/08/31 05:01:53;;;;;;;2.58;1.30;;;;;;;22.94;43.56;102028.91;4975509;28;20033;-64
2022/08/31 05:04:22;;;;;;;2.17;1.00;;;;;;;22.93;43.64;102027.25;4968353;28;20077;-65
2022/08/31 05:06:48;;;;;;;2.60;1.10;;;;;;;22.93;43.64;102030.75;4983405;28;20030;-64
2022/08/31 05:09:17;;;;;;;3.40;1.20;;;;;;;22.91;43.34;102027.38;4978478;28;20040;-67
2022/08/31 05:11:43;;;;;;;3.22;1.10;;;;;;;22.91;43.84;102035.34;4982902;28;20096;-63
2022/08/31 05:14:08;;;;;;;2.67;1.10;;;;;;;22.92;43.59;102031.75;4976641;28;20387;-64
2022/08/31 05:16:39;;;;;;;3.67;1.10;;;;;;;22.92;43.34;102041.50;4982716;28;20030;-65
2022/08/31 05:19:05;;;;;;;2.17;1.00;;;;;;;22.90;43.48;102038.16;4964107;28;20042;-63
2022/08/31 05:21:33;;;;;;;3.15;1.35;;;;;;;22.89;43.49;102042.63;4982203;28;20053;-64
2022/08/31 05:24:04;;;;;;;3.22;1.20;;;;;;;22.90;43.15;102035.47;4974901;28;20057;-64
2022/08/31 05:26:36;;;;;;;2.70;1.10;;;;;;;22.85;43.42;102029.72;4963822;28;20314;-62
2022/08/31 05:29:05;;;;;;;2.88;1.17;;;;;;;22.86;43.35;102039.34;4978729;28;20050;-62
2022/08/31 05:31:30;;;;;;;4.20;1.10;;;;;;;22.87;43.38;102041.88;4975361;28;20043;-63
2022/08/31 05:33:57;;;;;;;2.45;1.13;;;;;;;22.85;43.22;102041.19;4963567;28;20035;-63
2022/08/31 05:36:22;;;;;;;3.40;1.25;;;;;;;22.84;42.09;102044.78;4970605;28;20041;-66
2022/08/31 05:38:48;;;;;;;3.08;1.17;;;;;;;22.76;42.97;102041.94;4980634;28;20062;-64
2022/08/31 05:41:14;;;;;;;2.55;1.00;;;;;;;22.75;44.02;102042.94;4977664;28;20066;-64
2022/08/31 05:43:39;;;;;;;3.63;1.20;;;;;;;22.77;43.96;102051.59;4963316;28;20035;-64
2022/08/31 05:46:09;;;;;;;2.15;1.02;;;;;;;22.80;43.67;102048.69;4963096;28;20038;-63
2022/08/31 05:48:36;;;;;;;1.95;1.00;;;;;;;22.86;43.97;102052.66;4963132;28;20070;-64
2022/08/31 05:51:04;;;;;;;3.47;1.33;;;;;;;22.88;43.79;102051.56;4963216;28;20467;-66
2022/08/31 05:53:30;;;;;;;2.58;1.00;;;;;;;22.88;43.74;102048.06;4962943;28;20310;-65
2022/08/31 05:56:15;;;;;;;2.60;1.10;;;;;;;22.90;44.08;102046.13;4964833;28;20477;-65
2022/08/31 05:58:42;;;;;;;2.15;1.00;;;;;;;22.88;44.00;102050.72;4966004;28;20033;-64
2022/08/31 06:01:16;;;;;;;2.65;1.00;;;;;;;22.93;44.08;102059.16;4964705;28;20035;-64
2022/08/31 06:03:42;;;;;;;2.90;1.15;;;;;;;22.92;43.91;102062.78;4979024;28;20109;-68
2022/08/31 06:06:08;;;;;;;2.17;1.05;;;;;;;22.95;44.32;102067.84;4962769;28;20048;-65
2022/08/31 06:08:38;;;;;;;2.40;1.08;;;;;;;22.97;44.24;102063.22;4978056;28;20535;-66
2022/08/31 06:11:04;;;;;;;1.95;0.90;;;;;;;22.98;44.13;102065.75;4974602;28;20089;-66
2022/08/31 06:13:29;;;;;;;2.50;1.10;;;;;;;22.97;43.88;102065.88;4962569;28;20113;-64
2022/08/31 06:15:58;;;;;;;3.03;0.82;;;;;;;22.99;43.96;102069.28;4962321;28;20150;-65
2022/08/31 06:18:24;;;;;;;2.08;1.00;;;;;;;23.00;44.01;102069.16;4981498;28;20037;-65
2022/08/31 06:20:49;;;;;;;3.33;1.33;;;;;;;23.01;44.18;102068.16;4963599;28;20035;-65
2022/08/31 06:23:15;;;;;;;2.65;1.00;;;;;;;23.02;44.25;102071.69;4977338;28;20073;-65
2022/08/31 06:25:41;;;;;;;3.40;1.00;;;;;;;23.06;43.95;102070.44;4981884;28;20037;-66
2022/08/31 06:28:13;;;;;;;2.75;1.02;;;;;;;23.08;44.25;102080.97;4980860;28;20047;-66
2022/08/31 06:30:39;;;;;;;2.10;1.00;;;;;;;23.11;44.38;102081.56;4982077;28;20557;-65
2022/08/31 06:33:05;;;;;;;2.83;1.17;;;;;;;23.10;44.45;102077.22;4981580;28;20326;-65
2022/08/31 06:35:31;;;;;;;2.25;1.00;;;;;;;23.11;44.41;102080.72;4972140;28;20042;-66
2022/08/31 06:37:56;;;;;;;2.55;0.90;;;;;;;23.12;44.00;102077.94;4967371;28;20038;-64
2022/08/31 06:40:23;;;;;;;2.00;0.90;;;;;;;23.15;44.46;102083.00;4976869;28;20045;-64
2022/08/31 06:42:49;;;;;;;3.22;0.90;;;;;;;23.18;44.42;102088.06;4981502;28;20290;-63
2022/08/31 06:45:14;;;;;;;3.85;1.20;;;;;;;23.19;44.41;102091.56;4977043;28;20034;-64
2022/08/31 06:47:39;;;;;;;2.80;0.98;;;;;;;23.20;43.94;102079.97;4966951;28;20488;-64
2022/08/31 06:50:05;;;;;;;2.80;1.00;;;;;;;23.23;44.46;102089.50;4962359;28;20063;-64
2022/08/31 06:52:31;;;;;;;5.10;1.00;;;;;;;23.25;44.03;102084.91;4969514;28;20300;-63
2022/08/31 06:54:56;;;;;;;2.88;1.00;;;;;;;23.27;44.30;102085.59;4962654;28;20460;-64
2022/08/31 06:57:21;;;;;;;2.00;0.80;;;;;;;23.27;44.16;102093.59;4968121;28;20026;-70
2022/08/31 06:59:49;;;;;;;1.48;0.80;;;;;;;23.16;44.35;102089.16;4975218;28;20478;-81
2022/08/31 07:02:14;;;;;;;2.25;0.95;;;;;;;23.18;44.38;102093.38;4978721;28;20110;-79
2022/08/31 07:04:40;;;;;;;3.17;1.07;;;;;;;23.27;44.29;102097.06;4971131;28;20113;-80
2022/08/31 07:07:08;;;;;;;2.30;0.93;;;;;;;23.36;43.99;102098.13;4969278;28;20264;-78
2022/08/31 07:09:33;;;;;;;3.08;1.02;;;;;;;23.42;43.47;102097.63;4969511;28;20034;-76
2022/08/31 07:11:59;;;;;;;2.22;0.90;;;;;;;23.49;43.07;102095.28;4978515;28;20042;-78
2022/08/31 07:14:26;;;;;;;2.90;0.97;;;;;;;23.56;43.01;102101.78;4981307;28;20026;-76
2022/08/31 07:16:55;;;;;;;3.58;0.80;;;;;;;23.62;43.03;102100.41;4978824;28;20256;-76
2022/08/31 07:19:21;;;;;;;2.42;0.75;;;;;;;23.69;42.35;102109.56;4964514;28;20800;-79
2022/08/31 07:21:49;;;;;;;1.98;0.80;;;;;;;23.70;42.17;102106.78;4967828;28;20045;-79
2022/08/31 07:24:22;;;;;;;3.95;1.00;;;;;;;23.75;42.60;102097.53;4984284;28;20592;-79
2022/08/31 07:26:50;;;;;;;1.58;0.80;;;;;;;23.77;42.42;102092.94;4968737;28;20035;-77
2022/08/31 07:29:19;;;;;;;2.67;0.82;;;;;;;23.82;42.32;102096.88;4968165;28;20167;-75
2022/08/31 07:31:45;;;;;;;1.70;0.82;;;;;;;23.86;41.94;102097.47;4966341;28;20045;-75
2022/08/31 07:34:13;;;;;;;2.28;1.02;;;;;;;23.87;41.63;102094.69;4965319;28;20035;-75
2022/08/31 07:42:08;;;;;;;4.53;0.90;;;;;;;23.85;41.64;102093.97;4972956;28;20030;-77
2022/08/31 07:44:34;;;;;;;2.55;0.93;;;;;;;23.88;41.81;102098.22;4968746;28;20031;-76
2022/08/31 07:47:00;;;;;;;5.43;0.90;;;;;;;23.92;41.55;102090.78;4976012;28;20482;-78
2022/08/31 07:49:25;;;;;;;2.40;0.80;;;;;;;23.95;41.94;102091.34;4980059;28;20031;-76
2022/08/31 07:51:52;;;;;;;1.55;0.77;;;;;;;23.99;41.55;102092.78;4975566;28;20031;-76
2022/08/31 07:54:26;;;;;;;1.55;0.70;;;;;;;24.06;41.49;102101.09;4983564;28;20358;-76
2022/08/31 07:56:59;;;;;;;2.95;0.80;;;;;;;24.06;41.45;102093.09;4975451;28;20109;-74
2022/08/31 07:59:25;;;;;;;3.42;1.10;;;;;;;24.07;41.23;102098.28;4976244;28;20964;-71
2022/08/31 08:01:54;;;;;;;2.08;0.80;;;;;;;24.11;41.21;102100.69;4973170;28;20038;-81
2022/08/31 08:04:25;;;;;;;3.20;0.90;;;;;;;24.16;41.61;102111.78;4964676;28;20039;-82
2022/08/31 08:06:55;;;;;;;3.67;0.90;;;;;;;24.12;41.53;102108.53;4975766;28;20085;-82
2022/08/31 08:09:29;;;;;;;2.22;0.70;;;;;;;24.15;41.35;102110.94;4970244;28;20424;-77
2022/08/31 08:11:57;;;;;;;2.50;0.77;;;;;;;24.15;41.73;102116.25;4964163;28;20460;-76
2022/08/31 08:14:23;;;;;;;2.63;0.90;;;;;;;24.13;41.29;102112.03;4976488;28;20069;-72
2022/08/31 08:16:49;;;;;;;2.75;0.80;;;;;;;24.12;41.80;102111.19;4965615;28;20023;-73
2022/08/31 08:19:15;;;;;;;2.67;0.80;;;;;;;24.09;41.39;102116.78;4969880;28;20038;-66
2022/08/31 08:21:42;;;;;;;3.80;0.80;;;;;;;24.07;41.94;102118.75;4975917;28;20382;-67
2022/08/31 08:24:09;;;;;;;2.88;0.93;;;;;;;24.08;41.85;102128.41;4982671;28;20042;-66
2022/08/31 08:26:35;;;;;;;2.05;0.90;;;;;;;24.06;42.45;102125.88;4965120;28;20159;-67
2022/08/31 08:29:04;;;;;;;2.38;0.82;;;;;;;24.06;42.35;102133.03;4974448;28;20055;-68
2022/08/31 08:31:29;;;;;;;2.17;0.80;;;;;;;24.03;42.37;102127.97;4973777;28;20034;-68
2022/08/31 08:33:56;;;;;;;2.20;1.25;;;;;;;24.05;42.03;102134.00;4982956;28;20045;-68
2022/08/31 08:36:21;;;;;;;1.65;0.77;;;;;;;24.03;42.42;102126.16;4964457;28;20042;-68
2022/08/31 08:38:50;;;;;;;2.63;0.90;;;;;;;24.00;42.16;102123.75;4964450;28;20031;-68
2022/08/31 08:41:22;;;;;;;1.80;0.80;;;;;;;24.02;42.06;102127.13;4980334;28;20374;-68
2022/08/31 08:43:51;;;;;;;2.92;1.00;;;;;;;23.98;41.76;102131.03;4969545;28;20383;-67
2022/08/31 08:46:26;;;;;;;3.13;1.08;;;;;;;24.00;42.31;102133.56;4973882;28;20042;-82
2022/08/31 08:48:54;;;;;;;2.33;0.90;;;;;;;23.96;42.10;102133.00;4969672;28;20045;-81
2022/08/31 08:51:23;;;;;;;2.17;0.75;;;;;;;23.95;42.59;102136.63;4963326;28;20397;-70
2022/08/31 08:53:58;;;;;;;1.75;0.75;;;;;;;23.91;42.54;102127.22;4963182;28;20077;-72
2022/08/31 08:56:25;;;;;;;2.00;0.80;;;;;;;23.85;42.62;102125.94;4982903;28;20026;-69
2022/08/31 08:58:50;;;;;;;2.90;0.88;;;;;;;23.85;42.39;102127.75;4979363;28;20058;-61
2022/08/31 09:01:23;;;;;;;4.75;0.90;;;;;;;23.85;42.51;102128.59;4963647;28;20031;-63
2022/08/31 09:04:20;;;;;;;2.40;0.82;;;;;;;23.86;42.39;102127.63;4978233;28;20467;-62
2022/08/31 09:07:11;;;;;;;2.15;0.90;;;;;;;23.89;42.60;102130.03;4967416;28;20033;-62
2022/08/31 09:09:56;;;;;;;1.80;0.90;;;;;;;23.88;42.31;102119.50;4982163;28;20370;-62
2022/08/31 09:12:30;;;;;;;2.30;0.85;;;;;;;23.90;42.35;102121.03;4967646;28;20035;-62
2022/08/31 09:15:14;;;;;;;3.00;0.90;;;;;;;23.92;42.79;102120.91;4968448;28;20449;-63
2022/08/31 09:18:11;;;;;;;6.45;0.98;;;;;;;23.93;42.94;102121.78;4983219;28;20185;-66
2022/08/31 09:20:36;;;;;;;2.85;1.00;;;;;;;23.93;42.96;102124.44;4970746;28;20049;-64
2022/08/31 09:23:06;;;;;;;3.00;0.90;;;;;;;23.88;43.02;102116.84;4961884;28;20034;-65
2022/08/31 09:25:52;;;;;;;3.10;1.08;;;;;;;23.91;42.80;102119.25;4980370;28;20134;-61
2022/08/31 09:28:32;;;;;;;2.45;0.90;;;;;;;23.90;42.80;102113.06;4970743;28;20085;-62
2022/08/31 09:30:58;;;;;;;2.05;0.90;;;;;;;23.90;42.42;102118.38;4982387;28;20050;-64
2022/08/31 09:33:26;;;;;;;2.60;0.90;;;;;;;23.92;42.47;102117.41;4982847;28;20036;-62
2022/08/31 09:36:11;;;;;;;1.80;0.85;;;;;;;23.93;42.56;102122.59;4982634;28;20039;-62
2022/08/31 09:38:39;;;;;;;1.30;0.80;;;;;;;23.93;42.49;102111.97;4975031;28;20037;-63
2022/08/31 09:41:21;;;;;;;3.28;1.10;;;;;;;23.93;43.04;102119.94;4979476;28;20447;-62
2022/08/31 09:43:47;;;;;;;2.20;1.00;;;;;;;23.94;43.11;102129.63;4962791;28;20034;-62
2022/08/31 09:46:33;;;;;;;4.13;1.00;;;;;;;23.93;42.73;102130.59;4963880;28;20117;-62
2022/08/31 09:49:01;;;;;;;2.15;0.90;;;;;;;23.91;42.80;102124.56;4966973;28;20049;-78
2022/08/31 09:51:28;;;;;;;2.35;0.90;;;;;;;23.86;43.24;102129.41;4967164;28;20042;-64
2022/08/31 09:56:56;;;;;;;3.55;1.05;;;;;;;23.87;43.00;102112.47;4975912;28;20041;-64
2022/08/31 09:59:43;;;;;;;2.83;1.10;;;;;;;23.91;43.14;102111.25;4982884;28;20034;-65
2022/08/31 10:02:27;;;;;;;3.40;1.00;;;;;;;23.93;42.86;102111.13;4971212;28;20037;-65
2022/08/31 10:04:59;;;;;;;1.60;0.80;;;;;;;23.92;43.39;102104.94;4967869;28;20495;-66
2022/08/31 10:08:03;;;;;;;2.65;0.90;;;;;;;23.96;43.38;102105.50;4980598;28;20443;-63
2022/08/31 10:10:35;;;;;;;3.13;0.88;;;;;;;23.94;42.74;102103.00;4962962;28;20209;-64
2022/08/31 10:13:08;;;;;;;4.22;1.02;;;;;;;23.96;42.95;102106.38;4964125;28;20027;-64
2022/08/31 10:15:42;;;;;;;2.13;0.97;;;;;;;23.95;43.22;102102.00;4979414;28;20034;-66
2022/08/31 10:18:19;;;;;;;1.95;1.00;;;;;;;23.95;43.19;102103.84;4969262;28;20041;-74
2022/08/31 10:21:09;;;;;;;3.05;1.00;;;;;;;23.91;43.56;102105.94;4969226;28;20027;-76
2022/08/31 10:23:46;;;;;;;2.35;0.95;;;;;;;23.89;43.07;102102.53;4967332;28;20046;-72
2022/08/31 10:26:19;;;;;;;3.72;0.90;;;;;;;23.89;43.50;102098.06;4974956;28;20519;-78
2022/08/31 10:28:50;;;;;;;2.70;1.00;;;;;;;23.90;43.73;102096.25;4969886;28;20047;-82
2022/08/31 10:31:35;;;;;;;3.28;1.00;;;;;;;24.01;43.12;102097.97;4970699;28;20092;-78
2022/08/31 10:36:58;;;;;;;2.47;1.00;;;;;;;24.15;42.82;102104.75;4974308;28;20097;-75
2022/08/31 10:39:33;;;;;;;2.13;0.93;;;;;;;24.18;42.94;102097.34;4972324;28;20039;-76
2022/08/31 10:42:04;;;;;;;2.38;1.00;;;;;;;24.23;42.58;102095.13;4971839;28;20034;-76
2022/08/31 10:44:43;;;;;;;6.28;1.00;;;;;;;24.24;42.77;102094.16;4967188;28;20134;-77
2022/08/31 10:47:14;;;;;;;3.28;0.98;;;;;;;24.26;42.97;102092.19;4974811;28;20030;-83
2022/08/31 10:49:39;;;;;;;2.15;0.90;;;;;;;24.30;42.40;102089.25;4967064;28;20038;-80
2022/08/31 10:52:16;;;;;;;2.55;1.23;;;;;;;24.37;42.33;102080.59;4975565;28;20041;-81
2022/08/31 10:55:11;;;;;;;3.10;1.10;;;;;;;24.39;42.01;102096.44;4989587;28;20881;-77
2022/08/31 10:57:55;;;;;;;1.85;0.90;;;;;;;24.43;42.14;102092.50;4981897;28;20133;-76
2022/08/31 11:00:40;;;;;;;3.00;1.10;;;;;;;24.44;42.49;102086.22;4974671;28;20086;-76
2022/08/31 11:03:24;;;;;;;3.28;1.00;;;;;;;24.47;41.89;102090.41;4977722;28;20536;-77
2022/08/31 11:05:59;;;;;;;3.17;1.00;;;;;;;24.48;41.99;102092.09;4978883;28;20045;-74
2022/08/31 11:08:56;;;;;;;1.75;0.90;;;;;;;24.49;42.27;102085.81;4975948;28;20906;-76
2022/08/31 11:11:46;;;;;;;3.35;1.02;;;;;;;24.47;42.14;102085.06;4975574;28;20034;-67
2022/08/31 11:14:31;;;;;;;3.15;1.10;;;;;;;24.43;42.33;102085.38;4982713;28;20510;-68
2022/08/31 11:17:17;;;;;;;4.85;1.02;;;;;;;24.42;42.55;102083.69;4978892;28;20026;-64
2022/08/31 11:20:20;;;;;;;2.05;1.00;;;;;;;24.40;42.44;102095.44;4973216;28;20046;-78
2022/08/31 11:23:14;;;;;;;2.42;1.00;;;;;;;24.39;42.52;102080.44;4966309;28;20042;-72
2022/08/31 11:26:06;;;;;;;2.92;1.10;;;;;;;24.42;42.29;102088.16;4973646;28;20053;-77
2022/08/31 11:28:47;;;;;;;2.67;1.00;;;;;;;24.46;42.25;102089.56;4976278;28;20046;-77
2022/08/31 11:31:22;;;;;;;3.38;1.05;;;;;;;24.44;42.27;102081.72;4973747;28;20386;-63
2022/08/31 11:33:55;;;;;;;2.70;1.08;;;;;;;24.42;42.67;102075.69;4971678;28;20081;-65
2022/08/31 11:36:43;;;;;;;2.90;1.25;;;;;;;24.42;42.50;102078.34;4981193;28;20038;-73
2022/08/31 11:39:09;;;;;;;3.63;1.10;;;;;;;24.45;42.72;102077.25;4979106;28;21005;-79
2022/08/31 11:41:42;;;;;;;2.17;1.07;;;;;;;24.44;42.24;102070.22;4970239;28;20950;-71
2022/08/31 11:44:09;;;;;;;3.28;1.17;;;;;;;24.41;42.73;102059.84;4979980;28;20022;-80
2022/08/31 11:46:44;;;;;;;2.35;1.05;;;;;;;24.45;42.28;102074.56;4980877;28;20382;-79
2022/08/31 11:49:35;;;;;;;3.33;1.25;;;;;;;24.46;42.68;102065.59;4980026;28;21029;-70
2022/08/31 11:52:04;;;;;;;2.55;1.05;;;;;;;24.47;42.40;102061.09;4976287;28;20475;-77